Time;durP1;ratioP1;P1;durP2;ratioP2;P2;SDS_P1;SDS_P2;PMS_P1;PMS_P2;Temp;Humidity;BMP_temperature;BMP_pressure;BME280_temperature;BME280_humidity;BME280_pressure;Samples;Min_cycle;Max_cycle;Signal;HPM_P1;HPM_P2
2022/01/22 00:00:56;;;;;;;16.55;5.18;;;25.60;99.90;;;;;;5073955;28;20024;-71
2022/01/22 00:03:22;;;;;;;7.15;4.05;;;25.60;99.90;;;;;;5074750;28;20024;-71
2022/01/22 00:05:49;;;;;;;10.90;4.55;;;25.60;99.90;;;;;;5073799;28;20048;-71
2022/01/22 00:08:16;;;;;;;8.25;3.50;;;25.60;99.90;;;;;;5074689;28;20040;-71
2022/01/22 00:10:44;;;;;;;7.43;3.42;;;25.60;99.90;;;;;;5073783;28;20029;-71
2022/01/22 00:15:44;;;;;;;7.03;4.22;;;25.50;99.90;;;;;;5073634;28;20476;-71
2022/01/22 00:18:11;;;;;;;6.30;3.58;;;25.50;99.90;;;;;;5082850;28;20078;-71
2022/01/22 00:20:38;;;;;;;5.50;3.35;;;25.50;99.90;;;;;;5093114;28;20081;-71
2022/01/22 00:23:05;;;;;;;8.88;3.47;;;25.50;99.90;;;;;;5092189;28;20099;-72
2022/01/22 00:25:32;;;;;;;4.53;3.00;;;25.40;99.90;;;;;;5093360;28;20017;-71
2022/01/22 00:28:01;;;;;;;6.65;3.50;;;25.30;99.90;;;;;;5093008;28;20468;-71
2022/01/22 00:30:27;;;;;;;5.30;3.40;;;25.30;99.90;;;;;;5093467;28;20028;-70
2022/01/22 00:32:54;;;;;;;11.10;3.85;;;25.30;99.90;;;;;;5090637;28;20131;-71
2022/01/22 00:35:23;;;;;;;7.65;2.80;;;25.30;99.90;;;;;;5083011;28;20024;-72
2022/01/22 00:37:51;;;;;;;6.53;3.60;;;25.30;99.90;;;;;;5092388;28;20133;-71
2022/01/22 00:40:19;;;;;;;8.60;3.05;;;25.30;99.90;;;;;;5093019;28;20372;-72
2022/01/22 00:42:47;;;;;;;4.50;3.20;;;25.30;99.90;;;;;;5090540;28;20032;-72
2022/01/22 00:45:15;;;;;;;10.45;3.85;;;25.30;99.90;;;;;;5087753;28;20137;-72
2022/01/22 00:47:41;;;;;;;6.35;3.80;;;25.40;99.90;;;;;;5093025;28;20020;-71
2022/01/22 00:50:11;;;;;;;6.10;3.53;;;25.50;99.90;;;;;;5090800;28;20028;-71
2022/01/22 00:52:40;;;;;;;7.85;3.92;;;25.50;99.90;;;;;;5090890;28;20471;-72
2022/01/22 00:55:07;;;;;;;5.00;3.78;;;25.60;99.90;;;;;;5091256;28;20051;-72
2022/01/22 00:57:34;;;;;;;5.65;3.15;;;25.60;99.90;;;;;;5090203;28;20028;-71
2022/01/22 01:00:00;;;;;;;6.43;3.53;;;25.60;99.90;;;;;;5092578;28;20024;-71
2022/01/22 01:02:27;;;;;;;6.20;3.85;;;25.50;99.90;;;;;;5084991;28;20024;-70
2022/01/22 01:04:53;;;;;;;10.13;4.43;;;25.60;99.90;;;;;;5090441;28;20073;-71
2022/01/22 01:07:20;;;;;;;4.78;3.22;;;25.70;99.90;;;;;;5092727;28;20039;-71
2022/01/22 01:09:46;;;;;;;11.68;4.50;;;25.60;99.90;;;;;;5092251;28;20032;-71
2022/01/22 01:12:13;;;;;;;5.55;3.30;;;25.60;99.90;;;;;;5092765;28;20024;-70
2022/01/22 01:14:48;;;;;;;7.05;3.72;;;25.60;99.90;;;;;;5092980;28;20048;-69
2022/01/22 01:17:47;;;;;;;7.93;3.75;;;25.60;99.90;;;;;;5093464;28;20093;-68
2022/01/22 01:33:20;;;;;;;5.70;4.57;;;25.90;99.90;;;;;;5091490;28;20142;-70
2022/01/22 01:35:47;;;;;;;5.32;3.05;;;26.00;99.90;;;;;;5091789;28;20044;-71
2022/01/22 01:38:14;;;;;;;5.75;3.05;;;26.10;99.90;;;;;;5091475;28;20099;-71
2022/01/22 01:40:44;;;;;;;6.47;2.95;;;26.00;99.90;;;;;;5085123;28;20021;-70
2022/01/22 01:43:24;;;;;;;4.28;3.10;;;26.10;99.90;;;;;;5092797;28;20099;-70
2022/01/22 01:45:51;;;;;;;8.25;3.10;;;26.10;99.90;;;;;;5091680;28;20059;-69
2022/01/22 01:48:23;;;;;;;6.65;3.33;;;26.10;99.90;;;;;;5096254;28;20047;-68
2022/01/22 01:50:49;;;;;;;7.25;3.00;;;26.10;99.90;;;;;;5096338;28;20055;-68
2022/01/22 01:53:31;;;;;;;5.95;3.00;;;26.10;99.90;;;;;;5096118;28;20028;-69
2022/01/22 01:58:28;;;;;;;4.85;3.03;;;26.20;99.90;;;;;;5076107;28;20074;-67
2022/01/22 02:00:55;;;;;;;5.15;3.35;;;26.30;99.90;;;;;;5076316;28;20025;-67
2022/01/22 02:03:22;;;;;;;6.38;3.28;;;26.30;99.90;;;;;;5095351;22;20057;-69
2022/01/22 02:05:50;;;;;;;5.25;2.95;;;26.30;99.90;;;;;;5076221;28;20035;-69
2022/01/22 02:08:19;;;;;;;4.97;3.15;;;26.40;99.90;;;;;;5075768;28;20028;-69
2022/01/22 02:10:55;;;;;;;6.85;3.60;;;26.40;99.90;;;;;;5075658;28;20024;-72
2022/01/22 02:23:58;;;;;;;7.45;4.30;;;26.80;99.90;;;;;;5075227;28;20063;-72
2022/01/22 02:26:25;;;;;;;6.97;4.28;;;26.90;99.90;;;;;;5074536;28;20032;-69
2022/01/22 02:28:52;;;;;;;6.30;4.00;;;26.90;99.90;;;;;;5073884;28;20390;-71
2022/01/22 02:36:35;;;;;;;9.07;5.00;;;27.10;99.90;;;;;;5055045;28;20029;-70
2022/01/22 02:41:42;;;;;;;10.98;5.20;;;27.10;99.90;;;;;;5074953;28;20021;-70
2022/01/22 02:44:24;;;;;;;11.73;5.55;;;27.10;99.90;;;;;;5072411;28;20013;-72
2022/01/22 02:46:51;;;;;;;11.30;4.70;;;27.10;99.90;;;;;;5067754;28;20033;-71
2022/01/22 02:49:18;;;;;;;18.70;5.75;;;27.10;99.90;;;;;;5069695;28;20024;-71
2022/01/22 02:51:44;;;;;;;15.60;6.25;;;27.10;99.90;;;;;;5070203;28;20031;-73
2022/01/22 02:54:11;;;;;;;15.23;5.72;;;27.20;99.90;;;;;;5068796;28;20070;-71
2022/01/22 02:56:37;;;;;;;14.68;6.03;;;27.20;99.90;;;;;;5074882;28;20119;-73
2022/01/22 02:59:04;;;;;;;10.20;5.00;;;27.30;99.90;;;;;;5073887;28;20039;-68
2022/01/22 03:01:31;;;;;;;15.60;5.78;;;27.40;99.90;;;;;;5061999;28;20112;-70
2022/01/22 03:03:57;;;;;;;11.75;5.28;;;27.50;99.90;;;;;;5070645;28;20075;-72
2022/01/22 03:06:24;;;;;;;14.13;5.50;;;27.50;99.90;;;;;;5064336;28;20074;-72
2022/01/22 03:08:50;;;;;;;10.30;5.07;;;27.50;99.90;;;;;;5062791;28;20024;-71
2022/01/22 03:11:23;;;;;;;10.52;4.45;;;27.40;99.90;;;;;;5073987;28;20469;-73
2022/01/22 03:14:33;;;;;;;14.18;5.05;;;27.50;99.90;;;;;;5074159;28;20020;-71
2022/01/22 03:19:31;;;;;;;10.50;5.20;;;27.40;99.90;;;;;;5069708;28;20501;-74
2022/01/22 03:22:14;;;;;;;11.65;5.38;;;27.50;99.90;;;;;;5065073;28;20017;-74
2022/01/22 03:27:23;;;;;;;14.00;5.10;;;27.50;99.90;;;;;;5064949;28;20017;-72
2022/01/22 03:29:51;;;;;;;16.02;5.63;;;27.60;99.90;;;;;;5065030;28;20063;-70
2022/01/22 03:32:19;;;;;;;10.15;5.05;;;27.60;99.90;;;;;;5065981;28;20095;-73
2022/01/22 03:37:24;;;;;;;16.88;7.57;;;27.60;99.90;;;;;;5064644;28;20028;-74
2022/01/22 03:39:51;;;;;;;35.03;17.58;;;27.50;99.90;;;;;;5070202;28;20045;-72
2022/01/22 03:42:18;;;;;;;24.92;13.63;;;27.40;99.90;;;;;;5070378;28;20021;-73
2022/01/22 03:44:44;;;;;;;20.33;9.15;;;27.30;99.90;;;;;;5072162;28;20102;-74
2022/01/22 03:47:11;;;;;;;18.23;6.88;;;27.30;99.90;;;;;;5064757;28;20025;-73
2022/01/22 03:49:38;;;;;;;19.92;8.60;;;27.30;99.90;;;;;;5066068;28;20071;-75
2022/01/22 03:52:05;;;;;;;18.48;13.10;;;27.50;99.90;;;;;;5073463;28;20024;-72
2022/01/22 03:54:31;;;;;;;9.98;5.53;;;27.60;99.90;;;;;;5061421;28;20143;-73
2022/01/22 03:56:58;;;;;;;15.00;6.63;;;27.70;99.90;;;;;;5066571;28;20028;-72
2022/01/22 03:59:25;;;;;;;15.52;9.15;;;27.90;99.90;;;;;;5066219;28;20024;-73
2022/01/22 04:04:29;;;;;;;17.33;7.85;;;28.10;99.90;;;;;;5071088;28;20095;-74
2022/01/22 04:09:39;;;;;;;21.45;14.48;;;28.30;99.90;;;;;;5059404;28;20040;-73
2022/01/22 04:12:09;;;;;;;37.53;24.40;;;28.40;99.90;;;;;;5072128;28;20024;-72
2022/01/22 04:14:43;;;;;;;14.32;8.77;;;28.50;99.90;;;;;;5067885;28;20447;-71
2022/01/22 04:24:56;;;;;;;18.85;11.27;;;28.60;99.90;;;;;;5063875;28;20052;-73
2022/01/22 04:27:24;;;;;;;17.65;9.95;;;28.70;99.90;;;;;;5063575;28;20017;-74
2022/01/22 04:29:52;;;;;;;18.45;9.10;;;28.70;99.90;;;;;;5069682;28;20024;-75
2022/01/22 04:32:19;;;;;;;17.60;9.02;;;28.90;99.90;;;;;;5061253;28;20024;-74
2022/01/22 04:34:46;;;;;;;19.25;9.60;;;28.90;99.90;;;;;;5060840;28;20036;-74
2022/01/22 04:37:13;;;;;;;18.33;8.13;;;29.00;99.90;;;;;;5053745;28;20021;-74
2022/01/22 04:39:40;;;;;;;16.23;8.95;;;29.10;99.90;;;;;;5052067;28;20032;-73
2022/01/22 04:42:07;;;;;;;20.58;10.60;;;29.00;99.90;;;;;;5064112;28;20051;-73
2022/01/22 04:44:40;;;;;;;21.60;11.15;;;29.10;99.90;;;;;;5070411;28;20021;-74
2022/01/22 04:55:00;;;;;;;27.20;11.63;;;29.50;99.90;;;;;;5065141;28;20040;-74
2022/01/22 04:57:29;;;;;;;30.52;10.85;;;29.40;99.90;;;;;;5071760;28;20067;-74
2022/01/22 04:59:56;;;;;;;18.58;8.48;;;29.40;99.90;;;;;;5067342;28;20111;-72
2022/01/22 05:02:23;;;;;;;22.88;10.52;;;29.30;99.90;;;;;;5059369;28;20060;-73
2022/01/22 05:04:50;;;;;;;16.23;9.15;;;29.50;99.90;;;;;;5060841;28;20074;-73
2022/01/22 05:07:17;;;;;;;18.27;8.80;;;29.50;99.90;;;;;;5070591;28;20020;-73
2022/01/22 05:09:44;;;;;;;27.65;10.90;;;29.60;99.90;;;;;;5070242;28;20021;-74
2022/01/22 05:12:10;;;;;;;24.40;10.10;;;29.60;99.90;;;;;;5066661;28;20017;-74
2022/01/22 05:14:37;;;;;;;28.42;10.77;;;29.70;99.90;;;;;;5067704;28;20473;-73
2022/01/22 05:17:06;;;;;;;33.85;16.40;;;29.80;99.90;;;;;;5071376;28;20370;-73
2022/01/22 05:22:15;;;;;;;27.05;11.35;;;30.10;99.90;;;;;;5076049;28;20021;-70
2022/01/22 05:24:46;;;;;;;23.50;10.48;;;30.20;99.90;;;;;;5073377;28;20376;-73
2022/01/22 05:30:07;;;;;;;24.88;11.27;;;30.20;99.90;;;;;;5072371;28;20610;-73
2022/01/22 05:37:25;;;;;;;19.75;11.55;;;30.20;99.90;;;;;;5065587;28;20033;-72
2022/01/22 05:39:52;;;;;;;20.85;11.45;;;30.20;99.90;;;;;;5064657;28;20052;-73
2022/01/22 05:42:19;;;;;;;24.13;11.70;;;30.10;99.90;;;;;;5059607;28;20029;-74
2022/01/22 05:44:46;;;;;;;22.10;10.27;;;30.20;99.90;;;;;;5058508;28;20485;-73
2022/01/22 05:47:19;;;;;;;19.65;10.63;;;30.20;99.90;;;;;;5062391;28;20386;-73
2022/01/22 05:49:46;;;;;;;23.83;11.27;;;30.10;99.90;;;;;;5058454;28;20025;-74
2022/01/22 05:52:15;;;;;;;40.60;20.63;;;30.00;99.90;;;;;;5062767;28;20037;-74
2022/01/22 05:59:49;;;;;;;74.18;48.72;;;30.20;99.90;;;;;;5061614;28;20029;-73
2022/01/22 06:02:18;;;;;;;24.85;15.85;;;30.40;99.90;;;;;;5058005;28;20443;-72
2022/01/22 06:04:45;;;;;;;27.10;11.50;;;30.40;99.90;;;;;;5056544;28;20025;-73
2022/01/22 06:07:13;;;;;;;28.17;14.07;;;30.40;99.90;;;;;;5059359;28;20111;-73
2022/01/22 06:09:54;;;;;;;28.20;10.30;;;30.40;99.90;;;;;;5058371;28;20411;-72
2022/01/22 06:12:38;;;;;;;22.65;9.43;;;30.50;99.90;;;;;;5058874;28;20078;-74
2022/01/22 06:15:05;;;;;;;16.92;9.05;;;30.50;99.90;;;;;;5064280;28;20147;-73
2022/01/22 06:17:32;;;;;;;20.95;9.57;;;30.60;99.90;;;;;;5060455;28;20511;-73
2022/01/22 06:19:58;;;;;;;17.92;8.90;;;30.70;99.90;;;;;;5060892;28;20032;-72
2022/01/22 06:22:25;;;;;;;14.82;8.55;;;30.60;99.90;;;;;;5065338;28;20074;-73
2022/01/22 06:24:52;;;;;;;27.25;9.57;;;30.50;99.90;;;;;;5063072;28;20043;-73
2022/01/22 06:27:18;;;;;;;25.70;8.88;;;30.40;99.90;;;;;;5064033;28;20416;-73
2022/01/22 06:29:45;;;;;;;20.58;9.45;;;30.40;99.90;;;;;;5067130;28;20034;-73
2022/01/22 06:32:11;;;;;;;19.85;9.55;;;30.40;99.90;;;;;;5057505;28;20036;-73
2022/01/22 06:34:38;;;;;;;20.77;9.45;;;30.40;99.90;;;;;;5057444;28;20495;-71
2022/01/22 06:37:04;;;;;;;15.15;8.60;;;30.30;99.90;;;;;;5062196;28;20481;-72
2022/01/22 06:39:40;;;;;;;24.45;12.05;;;30.30;99.90;;;;;;5065081;28;20376;-71
2022/01/22 06:42:07;;;;;;;55.03;36.50;;;30.30;99.90;;;;;;5055935;28;20389;-74
2022/01/22 06:44:34;;;;;;;25.70;14.20;;;30.20;99.90;;;;;;5058064;28;20020;-71
2022/01/22 06:47:01;;;;;;;70.38;44.53;;;30.20;99.90;;;;;;5067791;28;20059;-71
2022/01/22 06:49:28;;;;;;;56.25;38.58;;;30.20;99.90;;;;;;5072369;28;20021;-70
2022/01/22 06:51:55;;;;;;;22.42;11.02;;;30.30;99.90;;;;;;5075248;28;20453;-71
2022/01/22 06:54:22;;;;;;;28.70;14.77;;;30.30;99.90;;;;;;5072817;28;20020;-69
2022/01/22 06:56:48;;;;;;;20.17;9.35;;;30.30;99.90;;;;;;5069505;28;20056;-73
2022/01/22 06:59:16;;;;;;;16.65;8.40;;;30.30;99.90;;;;;;5059013;28;20021;-70
2022/01/22 07:01:44;;;;;;;24.42;15.38;;;30.20;99.90;;;;;;5060765;28;20085;-68
2022/01/22 07:04:12;;;;;;;16.13;8.63;;;30.30;99.90;;;;;;5056611;28;20071;-71
2022/01/22 07:06:39;;;;;;;18.55;7.72;;;30.40;99.90;;;;;;5060554;28;20025;-72
2022/01/22 07:09:05;;;;;;;15.00;7.72;;;30.50;99.90;;;;;;5068322;28;20028;-70
2022/01/22 07:11:32;;;;;;;61.53;40.10;;;30.60;99.90;;;;;;5071794;28;20028;-72
2022/01/22 07:13:58;;;;;;;20.35;9.38;;;30.60;99.90;;;;;;5075577;28;20090;-71
2022/01/22 07:16:25;;;;;;;16.00;8.45;;;30.70;99.90;;;;;;5074821;28;20086;-71
2022/01/22 07:18:55;;;;;;;22.85;11.13;;;30.90;99.90;;;;;;5074743;28;20020;-70
2022/01/22 07:21:22;;;;;;;26.30;11.65;;;31.00;99.90;;;;;;5074680;28;20017;-71
2022/01/22 07:26:16;;;;;;;14.93;7.90;;;31.00;99.90;;;;;;5074888;28;20103;-71
2022/01/22 07:28:43;;;;;;;16.00;8.18;;;30.90;98.00;;;;;;5074204;28;20089;-70
2022/01/22 07:31:10;;;;;;;14.90;7.25;;;30.90;98.40;;;;;;5074067;28;20113;-71
2022/01/22 07:33:37;;;;;;;18.45;8.98;;;30.80;98.00;;;;;;5073335;28;20070;-71
2022/01/22 07:36:05;;;;;;;26.88;12.15;;;30.70;99.10;;;;;;5073776;28;20031;-68
2022/01/22 07:38:37;;;;;;;39.05;24.60;;;30.70;99.20;;;;;;5061976;28;20025;-72
2022/01/22 07:41:06;;;;;;;22.38;14.85;;;30.80;98.40;;;;;;5066064;28;20051;-71
2022/01/22 07:43:33;;;;;;;65.72;45.25;;;30.90;98.70;;;;;;5073412;28;20008;-72
2022/01/22 07:45:59;;;;;;;26.30;13.30;;;31.00;98.20;;;;;;5073295;28;20523;-71
2022/01/22 07:48:26;;;;;;;44.30;30.85;;;31.00;98.00;;;;;;5064852;28;20025;-71
2022/01/22 07:50:52;;;;;;;79.80;63.30;;;30.90;97.50;;;;;;5053743;28;20036;-70
2022/01/22 07:53:19;;;;;;;22.77;14.50;;;30.90;97.30;;;;;;5066239;28;20036;-70
2022/01/22 07:55:46;;;;;;;18.55;10.25;;;30.90;97.70;;;;;;5065991;28;20439;-69
2022/01/22 07:58:14;;;;;;;20.13;12.13;;;30.80;97.70;;;;;;5072365;28;20021;-71
2022/01/22 08:00:41;;;;;;;19.42;8.60;;;30.80;98.50;;;;;;5071914;28;20035;-70
2022/01/22 08:03:08;;;;;;;32.72;17.85;;;30.70;98.60;;;;;;5071226;28;20032;-71
2022/01/22 08:05:36;;;;;;;68.50;47.72;;;30.80;98.30;;;;;;5072722;28;20028;-71
2022/01/22 08:08:03;;;;;;;56.35;40.63;;;30.80;98.70;;;;;;5073566;28;20021;-70
2022/01/22 08:10:31;;;;;;;15.32;8.10;;;30.90;97.90;;;;;;5072484;28;20505;-73
2022/01/22 08:12:58;;;;;;;23.15;12.50;;;31.00;98.60;;;;;;5072665;28;20067;-71
2022/01/22 08:15:25;;;;;;;105.43;81.95;;;31.00;98.60;;;;;;5065217;28;20047;-70
2022/01/22 08:17:51;;;;;;;16.73;11.25;;;31.00;98.50;;;;;;5059865;28;20060;-71
2022/01/22 08:20:20;;;;;;;22.02;14.15;;;31.00;98.30;;;;;;5063897;28;20028;-75
2022/01/22 08:22:48;;;;;;;56.35;38.97;;;31.00;98.20;;;;;;5073507;28;20514;-77
2022/01/22 08:25:14;;;;;;;18.45;11.20;;;31.10;97.60;;;;;;5073402;28;20114;-72
2022/01/22 08:28:52;;;;;;;16.75;9.05;;;31.20;97.10;;;;;;5073711;28;20425;-74
2022/01/22 08:30:33;;;;;;;20.38;8.43;;;31.20;96.80;;;;;;5064314;28;20028;-73
2022/01/22 08:38:14;;;;;;;20.58;8.30;;;31.20;96.70;;;;;;5064221;28;20098;-69
2022/01/22 08:40:41;;;;;;;28.45;13.48;;;31.20;95.80;;;;;;5065374;28;20289;-71
2022/01/22 08:43:07;;;;;;;76.07;53.88;;;31.30;96.30;;;;;;5065666;28;20017;-72
2022/01/22 08:45:36;;;;;;;109.18;77.32;;;31.40;95.50;;;;;;5065502;28;20413;-73
2022/01/22 08:48:04;;;;;;;28.42;15.75;;;31.30;96.00;;;;;;5063416;28;20025;-71
2022/01/22 08:50:32;;;;;;;28.13;12.43;;;31.30;96.10;;;;;;5065077;28;20017;-71
2022/01/22 08:52:58;;;;;;;27.25;15.10;;;31.20;96.00;;;;;;5066131;28;20054;-69
2022/01/22 08:55:25;;;;;;;37.67;23.90;;;31.30;96.00;;;;;;5069254;28;20079;-69
2022/01/22 08:57:51;;;;;;;24.42;13.55;;;31.20;96.60;;;;;;5071039;28;20115;-72
2022/01/22 09:00:20;;;;;;;21.30;11.13;;;31.20;96.10;;;;;;5071092;28;20015;-69
2022/01/22 09:02:48;;;;;;;32.50;14.98;;;31.20;95.90;;;;;;5074018;28;20079;-71
2022/01/22 09:05:17;;;;;;;76.95;54.30;;;31.20;95.50;;;;;;5077325;28;20075;-71
2022/01/22 09:07:45;;;;;;;34.50;16.85;;;31.10;96.10;;;;;;5077064;28;20112;-70
2022/01/22 09:10:12;;;;;;;21.13;10.80;;;31.00;95.80;;;;;;5068142;28;20024;-71
2022/01/22 09:12:39;;;;;;;33.03;20.10;;;31.00;95.10;;;;;;5064138;28;20458;-70
2022/01/22 09:15:06;;;;;;;27.42;10.50;;;31.00;96.10;;;;;;5059204;28;20025;-71
2022/01/22 09:17:33;;;;;;;28.33;12.98;;;31.00;95.70;;;;;;5056142;28;20037;-70
2022/01/22 09:20:03;;;;;;;23.73;9.70;;;31.00;95.70;;;;;;5059129;28;20474;-71
2022/01/22 09:22:29;;;;;;;23.25;11.93;;;31.00;96.70;;;;;;5060505;28;20374;-70
2022/01/22 09:24:56;;;;;;;20.52;9.50;;;31.10;96.80;;;;;;5056835;28;20029;-71
2022/01/22 09:27:22;;;;;;;21.27;8.60;;;31.00;97.20;;;;;;5057079;28;20024;-70
2022/01/22 09:29:49;;;;;;;27.65;14.80;;;31.00;97.80;;;;;;5071335;28;20392;-70
2022/01/22 09:32:16;;;;;;;44.95;27.70;;;31.00;97.60;;;;;;5075639;28;20039;-71
2022/01/22 09:34:42;;;;;;;48.50;24.70;;;31.00;98.20;;;;;;5075731;28;20036;-72
2022/01/22 09:37:09;;;;;;;94.93;56.40;;;31.00;98.30;;;;;;5075488;28;20044;-70
2022/01/22 09:39:35;;;;;;;139.65;88.13;;;30.90;98.40;;;;;;5075388;28;20024;-71
2022/01/22 09:42:02;;;;;;;158.35;92.05;;;30.90;98.90;;;;;;5069640;28;20213;-71
2022/01/22 09:44:29;;;;;;;219.32;117.03;;;30.90;98.60;;;;;;5056494;28;20422;-71
2022/01/22 09:46:56;;;;;;;386.38;211.75;;;30.90;99.00;;;;;;5059292;28;20032;-71
2022/01/22 09:49:23;;;;;;;224.75;120.88;;;30.80;98.50;;;;;;5063198;28;20036;-70
2022/01/22 09:51:50;;;;;;;413.67;224.73;;;30.80;99.30;;;;;;5068610;28;20103;-71
2022/01/22 09:54:16;;;;;;;482.38;301.10;;;30.90;99.10;;;;;;5068512;28;20025;-70
2022/01/22 09:56:45;;;;;;;176.95;95.05;;;30.80;98.70;;;;;;5067059;28;20060;-70
2022/01/22 09:59:12;;;;;;;148.98;83.10;;;30.70;99.30;;;;;;5061046;28;20088;-71
2022/01/22 10:01:39;;;;;;;237.60;140.38;;;30.70;99.50;;;;;;5057190;28;20021;-69
2022/01/22 10:04:07;;;;;;;228.13;142.07;;;30.70;99.30;;;;;;5055806;28;20053;-70
2022/01/22 10:06:53;;;;;;;101.05;57.70;;;30.70;99.10;;;;;;5058135;28;20384;-71
2022/01/22 10:09:28;;;;;;;75.47;46.53;;;30.70;98.40;;;;;;5056387;28;20029;-70
2022/01/22 10:12:08;;;;;;;79.00;51.20;;;30.70;98.50;;;;;;5054620;28;20106;-70
2022/01/22 10:14:35;;;;;;;58.10;32.70;;;30.70;98.60;;;;;;5056644;28;20397;-72
2022/01/22 10:17:01;;;;;;;64.85;35.60;;;30.60;98.10;;;;;;5053894;28;20071;-71
2022/01/22 10:19:28;;;;;;;61.25;39.13;;;30.60;98.70;;;;;;5053136;28;20021;-72
2022/01/22 10:24:26;;;;;;;118.00;59.42;;;30.60;98.80;;;;;;5033384;28;20052;-70
2022/01/22 10:27:18;;;;;;;266.08;148.30;;;30.60;98.90;;;;;;5033655;28;20033;-70
2022/01/22 10:29:52;;;;;;;209.00;118.45;;;30.50;98.20;;;;;;5033234;28;20493;-71
2022/01/22 10:32:31;;;;;;;82.43;46.00;;;30.50;98.40;;;;;;5048429;28;20029;-73
2022/01/22 10:35:08;;;;;;;520.33;310.10;;;30.50;98.50;;;;;;5047307;28;20044;-71
2022/01/22 10:37:36;;;;;;;511.35;298.88;;;30.40;97.30;;;;;;5034416;28;20030;-71
2022/01/22 10:40:27;;;;;;;572.50;324.35;;;30.30;97.50;;;;;;5034230;28;20403;-67
2022/01/22 10:46:00;;;;;;;;;;;30.30;97.10;;;;;;5035027;28;20250;-66
2022/01/22 10:48:27;;;;;;;67.18;35.58;;;30.20;98.40;;;;;;5034410;28;19909;-66
2022/01/22 10:51:10;;;;;;;69.85;32.85;;;30.20;98.10;;;;;;5034926;28;20023;-67
2022/01/22 10:53:48;;;;;;;66.38;32.47;;;30.20;98.40;;;;;;5034643;28;20032;-67
2022/01/22 10:56:21;;;;;;;37.40;17.52;;;30.20;98.80;;;;;;5034340;28;20056;-67
2022/01/22 10:58:57;;;;;;;47.63;19.13;;;30.20;99.20;;;;;;5034575;28;20014;-68
2022/01/22 11:01:26;;;;;;;40.60;20.02;;;30.20;99.00;;;;;;5034612;28;20544;-67
2022/01/22 11:04:07;;;;;;;48.03;18.55;;;30.20;99.80;;;;;;5034474;28;20414;-67
2022/01/22 11:06:33;;;;;;;45.90;22.60;;;30.20;99.90;;;;;;5034456;28;20049;-68
2022/01/22 11:09:00;;;;;;;50.10;20.52;;;30.10;99.90;;;;;;5034103;28;20029;-67
2022/01/22 11:11:28;;;;;;;42.25;21.38;;;30.10;99.90;;;;;;5034630;28;20108;-68
2022/01/22 11:13:56;;;;;;;51.08;25.05;;;30.10;99.90;;;;;;5034515;28;20026;-67
2022/01/22 11:16:24;;;;;;;35.72;18.80;;;30.00;99.90;;;;;;5033325;28;20033;-67
2022/01/22 11:18:52;;;;;;;49.35;26.35;;;30.00;99.90;;;;;;5034389;28;20044;-67
2022/01/22 11:21:21;;;;;;;85.25;45.65;;;30.00;99.90;;;;;;5034443;28;20360;-67
2022/01/22 11:23:48;;;;;;;105.07;61.05;;;30.00;99.90;;;;;;5033956;28;20120;-67
2022/01/22 11:26:15;;;;;;;107.93;65.53;;;30.00;99.90;;;;;;5034288;28;20378;-67
2022/01/22 11:28:45;;;;;;;112.25;62.63;;;30.00;99.90;;;;;;5031939;28;20105;-68
2022/01/22 11:31:17;;;;;;;113.28;61.42;;;29.90;99.90;;;;;;5034059;28;20032;-68
2022/01/22 11:33:47;;;;;;;108.40;60.42;;;29.90;99.90;;;;;;5031712;28;20107;-67
2022/01/22 11:36:21;;;;;;;93.35;52.72;;;29.90;99.90;;;;;;5033779;28;20364;-68
2022/01/22 11:38:53;;;;;;;81.40;43.47;;;29.80;99.90;;;;;;5032418;28;20017;-67
2022/01/22 11:41:21;;;;;;;69.25;41.90;;;29.80;99.90;;;;;;5033374;28;20028;-67
2022/01/22 11:44:06;;;;;;;65.15;35.42;;;29.80;99.90;;;;;;5032952;28;20398;-66
2022/01/22 11:46:37;;;;;;;61.00;35.67;;;29.80;99.90;;;;;;5030580;28;20113;-67
2022/01/22 11:49:15;;;;;;;73.75;40.38;;;29.80;99.90;;;;;;5031183;28;20100;-67
2022/01/22 11:51:47;;;;;;;82.68;42.47;;;29.70;99.90;;;;;;5031357;28;20117;-67
2022/01/22 11:54:14;;;;;;;;;;;29.70;99.90;;;;;;5034122;28;20025;-67
2022/01/22 11:56:48;;;;;;;70.38;35.95;;;29.60;99.90;;;;;;5024637;28;19909;-67
2022/01/22 11:59:19;;;;;;;66.45;33.58;;;29.60;99.90;;;;;;5024675;28;20018;-67
2022/01/22 12:01:50;;;;;;;97.85;49.75;;;29.60;99.90;;;;;;5031577;28;20152;-67
2022/01/22 12:04:22;;;;;;;49.50;29.05;;;29.60;99.90;;;;;;5033455;28;20390;-67
2022/01/22 12:07:00;;;;;;;52.58;30.73;;;29.60;99.90;;;;;;5028661;28;20026;-69
2022/01/22 12:09:31;;;;;;;63.95;33.35;;;29.60;99.90;;;;;;5031623;28;20112;-68
2022/01/22 12:14:47;;;;;;;54.35;29.80;;;29.50;99.90;;;;;;5032109;28;20030;-67
2022/01/22 12:17:18;;;;;;;51.70;27.90;;;29.50;99.90;;;;;;5032244;28;20019;-67
2022/01/22 12:22:35;;;;;;;61.10;29.95;;;29.50;99.90;;;;;;5031239;28;20048;-67
2022/01/22 12:25:07;;;;;;;60.10;30.42;;;29.50;99.90;;;;;;5029299;28;20032;-67
2022/01/22 12:27:47;;;;;;;76.43;39.88;;;29.40;99.90;;;;;;5029416;28;20048;-67
2022/01/22 12:30:16;;;;;;;62.10;36.15;;;29.50;99.90;;;;;;5033645;28;20037;-67
2022/01/22 12:32:48;;;;;;;53.95;31.27;;;29.50;99.90;;;;;;5030208;28;20167;-67
2022/01/22 12:35:18;;;;;;;;;;;29.50;99.90;;;;;;5030413;28;20026;-67
2022/01/22 12:37:52;;;;;;;61.72;32.90;;;29.40;99.90;;;;;;5032440;28;19925;-66
2022/01/22 12:40:33;;;;;;;68.80;34.87;;;29.30;99.90;;;;;;5032881;28;20445;-66
2022/01/22 12:43:06;;;;;;;66.93;33.60;;;29.40;99.90;;;;;;5031716;28;20021;-66
2022/01/22 12:45:35;;;;;;;57.67;33.03;;;29.30;99.90;;;;;;5030861;28;20022;-67
2022/01/22 12:48:04;;;;;;;70.35;37.40;;;29.30;99.90;;;;;;5032689;28;20021;-66
2022/01/22 12:50:34;;;;;;;60.38;32.53;;;29.30;99.90;;;;;;5030420;28;20030;-67
2022/01/22 12:53:09;;;;;;;60.92;31.50;;;29.30;99.90;;;;;;5033024;28;20029;-67
2022/01/22 12:56:00;;;;;;;58.90;30.45;;;29.30;99.90;;;;;;5030790;28;20108;-67
2022/01/22 12:58:26;;;;;;;49.50;29.13;;;29.30;99.90;;;;;;5031131;28;20092;-67
2022/01/22 13:01:08;;;;;;;54.33;27.75;;;29.30;99.90;;;;;;5030639;28;20022;-67
2022/01/22 13:03:37;;;;;;;60.53;29.17;;;29.30;99.90;;;;;;5030526;28;20030;-69
2022/01/22 13:06:04;;;;;;;53.63;27.90;;;29.30;99.90;;;;;;5032905;28;20265;-67
2022/01/22 13:08:32;;;;;;;51.50;28.80;;;29.20;99.90;;;;;;5029723;28;20096;-67
2022/01/22 13:11:01;;;;;;;52.97;30.05;;;29.20;99.90;;;;;;5032358;28;20462;-67
2022/01/22 13:13:29;;;;;;;57.47;30.25;;;29.20;99.90;;;;;;5032754;28;20070;-67
2022/01/22 13:16:05;;;;;;;60.67;29.40;;;29.20;99.90;;;;;;5032744;28;20025;-67
2022/01/22 13:18:56;;;;;;;55.00;30.55;;;29.20;99.90;;;;;;5032355;28;20048;-67
2022/01/22 13:21:25;;;;;;;54.13;29.90;;;29.10;99.90;;;;;;5031772;28;20355;-67
2022/01/22 13:24:00;;;;;;;58.08;31.45;;;29.20;99.90;;;;;;5029603;28;20266;-67
2022/01/22 13:26:47;;;;;;;57.25;31.73;;;29.10;99.90;;;;;;5032590;28;20037;-67
2022/01/22 13:29:20;;;;;;;60.25;32.22;;;29.10;99.90;;;;;;5030114;28;20018;-67
2022/01/22 13:32:04;;;;;;;57.92;30.65;;;29.10;99.90;;;;;;5032141;28;20033;-67
2022/01/22 13:34:40;;;;;;;57.92;31.55;;;29.10;99.90;;;;;;5032297;28;20499;-68
2022/01/22 13:50:10;;;;;;;58.97;31.13;;;29.00;99.90;;;;;;5033009;28;20040;-67
2022/01/22 13:52:37;;;;;;;63.88;31.75;;;29.00;99.90;;;;;;5036108;28;20033;-68
2022/01/22 13:55:04;;;;;;;62.67;31.50;;;29.00;99.90;;;;;;5036034;28;20100;-67
2022/01/22 13:57:37;;;;;;;63.10;32.53;;;28.90;99.90;;;;;;5033118;28;20032;-68
2022/01/22 14:00:18;;;;;;;58.63;31.73;;;28.90;99.90;;;;;;5035955;28;20021;-67
2022/01/22 14:03:04;;;;;;;53.33;27.45;;;28.90;99.90;;;;;;5034863;28;20057;-67
2022/01/22 14:05:31;;;;;;;52.63;24.65;;;28.90;99.90;;;;;;5033129;28;20470;-67
2022/01/22 14:08:07;;;;;;;50.33;25.35;;;28.90;99.90;;;;;;5035652;28;20030;-67
2022/01/22 14:10:35;;;;;;;44.00;24.05;;;28.80;99.90;;;;;;5033521;28;20025;-67
2022/01/22 14:13:11;;;;;;;43.28;21.85;;;28.90;99.90;;;;;;5035562;28;20021;-66
2022/01/22 14:15:42;;;;;;;39.38;21.23;;;28.80;99.90;;;;;;5033948;28;20030;-66
2022/01/22 14:18:14;;;;;;;40.88;20.52;;;28.80;99.90;;;;;;5035202;28;20351;-66
2022/01/22 14:20:42;;;;;;;;;;;28.80;99.90;;;;;;5035947;28;20020;-67
2022/01/22 14:23:19;;;;;;;48.47;22.38;;;28.80;99.90;;;;;;5035171;28;20369;-67
2022/01/22 14:26:05;;;;;;;47.20;21.88;;;28.80;99.90;;;;;;5035204;28;20454;-68
2022/01/22 14:28:40;;;;;;;50.53;23.48;;;28.70;99.90;;;;;;5032893;28;20488;-65
2022/01/22 14:31:28;;;;;;;48.13;25.55;;;28.70;99.90;;;;;;5034851;28;20018;-67
2022/01/22 14:34:06;;;;;;;52.55;25.48;;;28.70;99.90;;;;;;5033036;28;20112;-67
2022/01/22 14:36:39;;;;;;;55.05;25.38;;;28.70;99.90;;;;;;5031803;28;20037;-67
2022/01/22 14:43:47;;;;;;;56.33;26.55;;;28.70;99.90;;;;;;5033894;28;20052;-67